Share

Dubrovnik, Hrvatska

Cilipi (LDDU) Elev 541 ft | 42.56 °N, 18.27 °E | Change Station

Current weather conditions updated 29 minutes ago

Scattered Clouds
Raštrkani oblaci
54 °F
Feels Like 54 °F
S
10
Vjetar Varijabla smjera vjetra Vjetar from JJI
Izlazak sunca 6:01 AM
Zalazak sunca 7:31 PM
Moon Zadnja četvrt

Tomorrow is forecast to be nearly the same temperature as today. Popodnevni pljuskovi..

Pritisak 29.65 u
Vidljivost 6.2 milja
Oblaci Raštrkani oblaci 6000 ft
Točka rose 46 °F
Vlažnost 77%
Kiša 0.00 u
Visina snijega Not available.
UV 1 od 16
Pollen Not available.
Kvalitet zraka Not available.
Flu Activity Not available.
METAR LDDU 181600Z 15009KT 120V190 9999 SCT060 12/08 Q1004 NOSIG

More Conditions Fewer Conditions

Pritisak 29.65 u
Vidljivost 6.2 milja
Oblaci Raštrkani oblaci 6000 ft
Točka rose 46 °F
Vlažnost 77%
Kiša 0.00 u
Visina snijega Not available.
UV 1 od 16
Pollen Not available.
Kvalitet zraka Not available.
Flu Activity Not available.
METAR LDDU 181600Z 15009KT 120V190 9999 SCT060 12/08 Q1004 NOSIG

More Conditions Fewer Conditions

10-Day Forecast

Almanac

Astronomija

Apr. 18, 2014 Izlazak Zalazak
Trenutno vrijeme 6:01 AM CEST 7:31 PM CEST
Civilni sumrak 5:31 AM CEST 8:01 PM CEST
Nautički sumrak 4:56 AM CEST 8:37 PM CEST
Astronomski sumrak 4:18 AM CEST 9:15 PM CEST
Moon 11:02 PM CEST 8:04 AM CEST
Duljina trajanja vidljive svjetlosti 14h 29m
Duljina dana
13h 30m
Tomorrow will be 2m 42s longer.
Zadnja četvrt, 87% of the Moon is Illuminated
Danas
Zadnja četvrt
Tra 22
Zadnja četvrt
Tra 29
New
Svi 6
Prva četvrtina
Svi 14
Pun mjesec

Današnji ekstremi

Country Highs Country Lows

Community

  • What's for Lunch?
    What's for Lunch?
  • SUNRISE THROUGH THE TREES.
    SUNRISE THROUGH THE TREES.
  • Dog Wood Blossoms
    Dog Wood Blossoms
  • Morning Light
    Morning Light
  • New Day
    New Day

WunderPhotos

Upload Photos

1,702,397 photos uploaded!

Nearby

Kvalitet zraka

Not available.

Visina snijega

Not available.

Coastal Water Temperatures

Mjesto Temperatura
No Stations Reporting

Earthquake Activity

Grad Distance Mag. Time & Date
No recent earthquake activity has been reported nearby.
Minimum magnitude displayed is 2.5.

Nearby Weather Stations

Lokacija stanice Temp. Točka rose Vlažnost Vjetar Precip. Elev Ažurirano Tip
Mandaljena 56.1 °F 46 °F 70% JI  na  2.6 mph 0.00 u / hr 118 ft 6:28 PM CEST Automatsko ažuriranje podataka

Show More Stations Show Fewer Stations

What do you think?

We're not finished. Please let us know what you like, what you don't like, and what you are still missing.